San Kennedy — WDE2882 — position and weather

sailwx.info

Track history (hours):
 
Tides and Currents Weather Stations Pressure Air Temp Water Temp Dewpoint Dewpoint Depression Visibility Wind Speed Wind Dir Waves Ship Positions

San Kennedy

Owner: Buffalo Marine Service, Inc., Houston, TX. More information available from US FCC via Universal Licensing System and Coast Guard Vessel Documentation Center.

Last reported at 2017-Nov-17 04:50 UTC. Time now 2017-Nov-20 02:07 UTC.
Position N 29°58' W 093°51'.

Length 21 m; draft 3.1 m.

Type: Tug. MMSI: 367330890.

Date/timePositionNaut miles runAvg speedWind from/ knotsBaromVisibWave heightAir tempDewpointWater temp
2017-Nov-17 04:50N 29°58' W 093°51'4 6.6
2017-Nov-17 04:10N 29°54' W 093°54'2 6.9
2017-Nov-17 03:52N 29°53' W 093°55'4 0.3
2017-Nov-16 13:58N 29°50' W 093°59'0 0.0
2017-Nov-16 13:05N 29°50' W 093°59'0 0.0
2017-Nov-16 13:00N 29°50' W 093°59'0 0.0
2017-Nov-16 12:29N 29°50' W 093°59'0 0.0
2017-Nov-16 12:00N 29°50' W 093°59'0 0.0
2017-Nov-16 11:30N 29°50' W 093°59'0 0.0
2017-Nov-16 10:58N 29°50' W 093°59'0 0.0
2017-Nov-16 10:30N 29°50' W 093°59'0 0.0
2017-Nov-16 10:00N 29°50' W 093°59'0 0.0
2017-Nov-16 09:30N 29°50' W 093°59'0 0.0
2017-Nov-16 09:00N 29°50' W 093°59'0 0.0
2017-Nov-16 08:30N 29°50' W 093°59'0 0.0
2017-Nov-16 05:55N 29°50' W 093°59'0 0.0
2017-Nov-16 03:40N 29°50' W 093°59'0 0.0
2017-Nov-15 15:36N 29°50' W 093°59'  
2017-Nov-09 20:38N 30°04' W 093°39'1 6.0
2017-Nov-09 20:28N 30°04' W 093°38'3 6.8
2017-Nov-09 20:00N 30°04' W 093°35'3 6.2
2017-Nov-09 19:30N 30°04' W 093°31'3 5.9
2017-Nov-09 19:00N 30°04' W 093°28'3 6.3
2017-Nov-09 18:30N 30°04' W 093°24'2 4.4
2017-Nov-09 18:00N 30°04' W 093°21'2 5.0
2017-Nov-09 17:30N 30°06' W 093°20'4 7.6
2017-Nov-09 17:01N 30°09' W 093°20'2 3.9
2017-Nov-09 16:30N 30°11' W 093°19'0 0.0
2017-Nov-09 16:00N 30°11' W 093°19'0 0.0
2017-Nov-09 15:30N 30°11' W 093°19'0 0.0
2017-Nov-09 15:00N 30°11' W 093°19'0 0.0
2017-Nov-09 14:30N 30°11' W 093°19'0 0.0
2017-Nov-09 14:00N 30°11' W 093°19'0 0.0
2017-Nov-09 13:30N 30°11' W 093°19'0 0.0
2017-Nov-09 13:00N 30°11' W 093°19'0 0.0
2017-Nov-09 12:30N 30°11' W 093°19'0 0.0
2017-Nov-09 12:00N 30°11' W 093°19'0 0.0
2017-Nov-09 11:30N 30°11' W 093°19'0 0.0
2017-Nov-09 11:00N 30°11' W 093°19'0 0.0
2017-Nov-09 10:30N 30°11' W 093°19'0 0.0
2017-Nov-09 10:01N 30°11' W 093°19'0 0.0
2017-Nov-09 09:30N 30°11' W 093°19'0 0.0
2017-Nov-09 09:00N 30°11' W 093°19'0 0.4
2017-Nov-09 08:30N 30°11' W 093°18'0 0.0
2017-Nov-09 08:00N 30°11' W 093°18'0 0.0
2017-Nov-09 07:30N 30°11' W 093°18'0 0.1
2017-Nov-09 07:00N 30°11' W 093°18'2 4.1
2017-Nov-09 06:30N 30°09' W 093°20'3 6.9
2017-Nov-09 06:00N 30°06' W 093°20'3 5.3
2017-Nov-09 05:30N 30°04' W 093°21'2 4.9
2017-Nov-09 05:00N 30°04' W 093°24'3 5.4
2017-Nov-09 04:30N 30°04' W 093°27'3 5.2
2017-Nov-09 04:00N 30°04' W 093°30'3 5.5
2017-Nov-09 03:30N 30°04' W 093°33'7 5.5
2017-Nov-09 02:09N 30°03' W 093°42'19 0.9
2017-Nov-08 05:29N 29°50' W 093°58'0 0.0
2017-Nov-08 04:28N 29°50' W 093°58'0 0.0
2017-Nov-08 03:36N 29°50' W 093°58'0 0.0
2017-Nov-08 01:21N 29°50' W 093°58'0 0.0
2017-Nov-08 00:56N 29°50' W 093°58'0 0.0
2017-Nov-07 08:36N 29°50' W 093°58'0 0.0
2017-Nov-07 08:30N 29°50' W 093°58'0 0.0
2017-Nov-07 07:54N 29°50' W 093°58'0 0.0
2017-Nov-07 07:20N 29°50' W 093°58'0 0.0
2017-Nov-07 05:55N 29°50' W 093°58'0 0.0
2017-Nov-07 05:28N 29°50' W 093°58'0 0.0
2017-Nov-07 04:57N 29°50' W 093°58'  
Track history (hours):
 
Tides and Currents Weather Stations Pressure Air Temp Water Temp Dewpoint Dewpoint Depression Visibility Wind Speed Wind Dir Waves Ship Positions

San Kennedy

Owner: Buffalo Marine Service, Inc., Houston, TX. More information available from US FCC via Universal Licensing System and Coast Guard Vessel Documentation Center.

Last reported at 2017-Nov-17 04:50 UTC. Time now 2017-Nov-20 02:07 UTC.
Position N 29°58' W 093°51'.

Length 21 m; draft 3.1 m.

Type: Tug. MMSI: 367330890.

Date/timePositionNaut miles runAvg speedWind from/ knotsBaromVisibWave heightAir tempDewpointWater temp
2017-Nov-17 04:50N 29°58' W 093°51'4 6.6
2017-Nov-17 04:10N 29°54' W 093°54'2 6.9
2017-Nov-17 03:52N 29°53' W 093°55'4 0.3
2017-Nov-16 13:58N 29°50' W 093°59'0 0.0
2017-Nov-16 13:05N 29°50' W 093°59'0 0.0
2017-Nov-16 13:00N 29°50' W 093°59'0 0.0
2017-Nov-16 12:29N 29°50' W 093°59'0 0.0
2017-Nov-16 12:00N 29°50' W 093°59'0 0.0
2017-Nov-16 11:30N 29°50' W 093°59'0 0.0
2017-Nov-16 10:58N 29°50' W 093°59'0 0.0
2017-Nov-16 10:30N 29°50' W 093°59'0 0.0
2017-Nov-16 10:00N 29°50' W 093°59'0 0.0
2017-Nov-16 09:30N 29°50' W 093°59'0 0.0
2017-Nov-16 09:00N 29°50' W 093°59'0 0.0
2017-Nov-16 08:30N 29°50' W 093°59'0 0.0
2017-Nov-16 05:55N 29°50' W 093°59'0 0.0
2017-Nov-16 03:40N 29°50' W 093°59'0 0.0
2017-Nov-15 15:36N 29°50' W 093°59'  
2017-Nov-09 20:38N 30°04' W 093°39'1 6.0
2017-Nov-09 20:28N 30°04' W 093°38'3 6.8
2017-Nov-09 20:00N 30°04' W 093°35'3 6.2
2017-Nov-09 19:30N 30°04' W 093°31'3 5.9
2017-Nov-09 19:00N 30°04' W 093°28'3 6.3
2017-Nov-09 18:30N 30°04' W 093°24'2 4.4
2017-Nov-09 18:00N 30°04' W 093°21'2 5.0
2017-Nov-09 17:30N 30°06' W 093°20'4 7.6
2017-Nov-09 17:01N 30°09' W 093°20'2 3.9
2017-Nov-09 16:30N 30°11' W 093°19'0 0.0
2017-Nov-09 16:00N 30°11' W 093°19'0 0.0
2017-Nov-09 15:30N 30°11' W 093°19'0 0.0
2017-Nov-09 15:00N 30°11' W 093°19'0 0.0
2017-Nov-09 14:30N 30°11' W 093°19'0 0.0
2017-Nov-09 14:00N 30°11' W 093°19'0 0.0
2017-Nov-09 13:30N 30°11' W 093°19'0 0.0
2017-Nov-09 13:00N 30°11' W 093°19'0 0.0
2017-Nov-09 12:30N 30°11' W 093°19'0 0.0
2017-Nov-09 12:00N 30°11' W 093°19'0 0.0
2017-Nov-09 11:30N 30°11' W 093°19'0 0.0
2017-Nov-09 11:00N 30°11' W 093°19'0 0.0
2017-Nov-09 10:30N 30°11' W 093°19'0 0.0
2017-Nov-09 10:01N 30°11' W 093°19'0 0.0
2017-Nov-09 09:30N 30°11' W 093°19'0 0.0
2017-Nov-09 09:00N 30°11' W 093°19'0 0.4
2017-Nov-09 08:30N 30°11' W 093°18'0 0.0
2017-Nov-09 08:00N 30°11' W 093°18'0 0.0
2017-Nov-09 07:30N 30°11' W 093°18'0 0.1
2017-Nov-09 07:00N 30°11' W 093°18'2 4.1
2017-Nov-09 06:30N 30°09' W 093°20'3 6.9
2017-Nov-09 06:00N 30°06' W 093°20'3 5.3
2017-Nov-09 05:30N 30°04' W 093°21'2 4.9
2017-Nov-09 05:00N 30°04' W 093°24'3 5.4
2017-Nov-09 04:30N 30°04' W 093°27'3 5.2
2017-Nov-09 04:00N 30°04' W 093°30'3 5.5
2017-Nov-09 03:30N 30°04' W 093°33'7 5.5
2017-Nov-09 02:09N 30°03' W 093°42'19 0.9
2017-Nov-08 05:29N 29°50' W 093°58'0 0.0
2017-Nov-08 04:28N 29°50' W 093°58'0 0.0
2017-Nov-08 03:36N 29°50' W 093°58'0 0.0
2017-Nov-08 01:21N 29°50' W 093°58'0 0.0
2017-Nov-08 00:56N 29°50' W 093°58'0 0.0
2017-Nov-07 08:36N 29°50' W 093°58'0 0.0
2017-Nov-07 08:30N 29°50' W 093°58'0 0.0
2017-Nov-07 07:54N 29°50' W 093°58'0 0.0
2017-Nov-07 07:20N 29°50' W 093°58'0 0.0
2017-Nov-07 05:55N 29°50' W 093°58'0 0.0
2017-Nov-07 05:28N 29°50' W 093°58'0 0.0
2017-Nov-07 04:57N 29°50' W 093°58'  

Dump ship's entire track history